To NAV CANADA Home Page Login to a new session Search on AWWS site Feedback and Comments Disclaimer Vers la page française équivalente Tips FAQ What's new on the site To the Forecasts and Observations / NOTAM section To "File a Flight Plan" website Publications and other links Update of the User's profile FIC Telephone Numbers My Weather Data Folder Route Weather Data Regional Weather Data Local Weather Data To the Forecasts and Observations / NOTAM section
Request Generated 04/30/2017 at 05:02:01 UTC . Weather information available at that time is displayed.

METAR/TAF

RED DEER REGIONAL/AB    

METAR CYQF 300500Z 15010KT 15SM FEW100 OVC130 06/01 A2983 RMK AC1AC7
SLP127=
METAR CYQF 300400Z 13010KT 15SM FEW100 OVC160 07/00 A2986 RMK AC2AS6
SLP135=
METAR CYQF 300300Z 09008KT 15SM SCT080 OVC160 08/M00 A2987 RMK AC3AS5
SLP141=

TAF CYQF 292340Z 3000/3012 VRB03KT P6SM SCT060 TEMPO 3000/3003 P6SM
VCSH BKN060
BECMG 3001/3003 12008KT
FM300500 16005KT P6SM FEW060 BKN100
BECMG 3010/3012 29010KT
RMK NXT FCST BY 300600Z=
Your time UTC time
Weather data provided by Environment Canada and NAV CANADA